Terminal Aerodrome Forecast
Issued by NWS

Home | Current Version | Previous Version | Graphics & Text | Print | Product List | Glossary On
Versions: 1 2 3 4 5 6 7 8 9 10 11 12 13 14 15 16 17
000
FTUS43 KGRB 222300
TAFCWA
TAF
KCWA 222328Z 2300/2324 33012KT P6SM SCT040
     FM230200 35006KT P6SM SKC
     FM231400 34008KT P6SM SCT035
      TEMPO 2315/2319 BKN035
      AMD LTD TO CLD VIS AND WIND 2303/2311=

USA.gov is the U.S. government's official web portal to all federal, state and local government web resources and services.